Piedmont, SD (57769)

10:41 AM MDT on July 28, 2015 (GMT -0600)
Elk Creek/Running Deer Trail | | Change Station
CLOSE
Current Station
Personal Weather Station
Location: Piedmont, SD
Elevation: 3225 ft
Nearby Weather Stations
Active Advisory: Wind Advisory Active Notice: Record Report

Elev 3225 ft 44.24 °N, 103.31 °W | Updated 8 seconds ago

Clear
Clear
70.6 °F
Feels Like 77 °F
N
13.0
Wind Variable Wind from West
Gusts 23.0 mph

Today
High -- | Low -- °F
--% Chance of Precip.
Yesterday
High -- | Low -- °F
Precip. -- in
5:35 AM 8:22 PM
Waxing Gibbous, 90% visible
Pressure 29.95 in
Visibility 10.0 miles
Clouds Clear
Heat Index 77 °F
Dew Point 44 °F
Humidity 38%
Rainfall 0.00 in
Snow Depth Not available.
UV 6 out of 12
Pollen 7.00 out of 12
Air Quality Not available.
Flu Activity Not available.
METAR KRCA 281558Z AUTO 30009G18KT 270V330 10SM CLR 21/06 A3000 RMK AO2 SLP142 T02060062 $

More Conditions Fewer Conditions

Pressure 29.95 in
Visibility 10.0 miles
Clouds Clear
Heat Index 77 °F
Dew Point 44 °F
Humidity 38%
Rainfall 0.00 in
Snow Depth Not available.
UV 6 out of 12
Pollen 7.00 out of 12
Air Quality Not available.
Flu Activity Not available.
METAR KRCA 281558Z AUTO 30009G18KT 270V330 10SM CLR 21/06 A3000 RMK AO2 SLP142 T02060062 $

More Conditions Fewer Conditions

10-Day Weather Forecast

×

Almanac

Astronomy

Jul. 28, 2015 Rise Set
Actual Time
Civil Twilight
Nautical Twilight
Astronomical Twilight
Moon
Length of Visible Light
Length of Day
Tomorrow will be .
, % of the Moon is Illuminated

Today's Extremes

State Highs State Lows

Community

WunderPhotos

Upload Photos

1,841,891 photos uploaded!

WunderBlogs® & News

Nearby

Air Quality

  Air Quality AQ Index Pollutant
Not available.

Snow Depth

Station Depth Elevation

Earthquake Activity

City Distance Mag. Time & Date
Minimum magnitude displayed is 2.5.

Coastal Water Temperatures

Place Temperature

Stations

Nearby Weather Stations

Station Location Temp. Windchill Dew Point Humidity Wind Precip. Elev Updated Type
                   
Wind Advisory
Statement as of 6:40 AM MDT on July 28, 2015

... Wind Advisory remains in effect from 11 am this morning to
7 PM MDT this evening...

* timing... late this morning through early this evening.

* Winds... west 20 to 35 mph with gusts up to 45 mph.

* Impacts... sudden wind gusts can cause drivers to lose
control... especially in lightweight or high profile
vehicles... including motorcycles. Strong winds can cause
blowing dust... reduced visibility... and flying debris.

Precautionary/preparedness actions...

A Wind Advisory means 30 mph winds... or gusts over 45 mph... are
expected or occurring.